Time;durP1;ratioP1;P1;durP2;ratioP2;P2;SDS_P1;SDS_P2;PMS_P1;PMS_P2;Temp;Humidity;BMP_temperature;BMP_pressure;BME280_temperature;BME280_humidity;BME280_pressure;Samples;Min_cycle;Max_cycle;Signal;HPM_P1;HPM_P2
2021/09/28 00:00:29;;;;;;;9.25;4.28;;;;;;;8.14;80.41;100263.77;1831012;77;21310;-61
2021/09/28 00:02:58;;;;;;;4.22;3.02;;;;;;;8.11;80.48;100262.55;1800738;77;21037;-61
2021/09/28 00:05:24;;;;;;;9.90;3.92;;;;;;;8.08;80.67;100261.34;1821102;77;21413;-61
2021/09/28 00:07:51;;;;;;;7.75;3.35;;;;;;;8.04;80.73;100255.38;1817210;77;22200;-61
2021/09/28 00:10:18;;;;;;;5.93;3.50;;;;;;;8.01;81.04;100254.59;1825033;77;21504;-61
2021/09/28 00:12:46;;;;;;;7.30;4.17;;;;;;;7.99;81.03;100256.41;1824157;77;21833;-61
2021/09/28 00:15:15;;;;;;;6.40;4.37;;;;;;;7.95;81.52;100254.77;1814914;76;21532;-61
2021/09/28 00:17:43;;;;;;;10.45;5.70;;;;;;;7.92;81.67;100252.27;1825633;76;23175;-61
2021/09/28 00:20:12;;;;;;;10.45;6.75;;;;;;;7.90;81.84;100246.24;1822610;77;21041;-61
2021/09/28 00:22:40;;;;;;;8.03;5.58;;;;;;;7.87;81.91;100245.03;1822345;76;21187;-61
2021/09/28 00:25:09;;;;;;;11.08;6.45;;;;;;;7.85;81.64;100249.84;1817159;77;21391;-61
2021/09/28 00:27:36;;;;;;;11.22;7.60;;;;;;;7.84;81.62;100253.34;1798959;77;21350;-61
2021/09/28 00:30:04;;;;;;;10.93;7.15;;;;;;;7.83;81.86;100249.02;1820651;76;21329;-61
2021/09/28 00:32:31;;;;;;;8.25;4.80;;;;;;;7.84;81.88;100244.66;1825135;77;20908;-61
2021/09/28 00:34:58;;;;;;;10.65;7.17;;;;;;;7.84;82.00;100249.44;1831416;76;21030;-61
2021/09/28 00:37:25;;;;;;;8.65;6.20;;;;;;;7.85;82.06;100249.84;1831631;77;23171;-61
2021/09/28 00:39:52;;;;;;;11.80;7.03;;;;;;;7.84;81.90;100245.55;1834600;77;20926;-61
2021/09/28 00:42:19;;;;;;;9.40;5.80;;;;;;;7.83;81.89;100246.42;1818896;77;21444;-61
2021/09/28 00:44:46;;;;;;;10.13;6.10;;;;;;;7.84;82.00;100248.14;1833121;77;20966;-61
2021/09/28 00:47:15;;;;;;;7.22;5.28;;;;;;;7.85;82.08;100252.44;1814952;76;21409;-61
2021/09/28 00:49:45;;;;;;;9.80;6.28;;;;;;;7.84;82.15;100242.95;1818190;76;21043;-61
2021/09/28 00:52:14;;;;;;;8.45;4.28;;;;;;;7.85;82.06;100244.64;1813667;77;22319;-61
2021/09/28 00:54:41;;;;;;;7.17;4.78;;;;;;;7.87;82.20;100241.13;1815382;76;20969;-61
2021/09/28 00:57:09;;;;;;;7.40;5.15;;;;;;;7.89;82.20;100240.65;1822598;76;21034;-61
2021/09/28 00:59:38;;;;;;;8.50;4.78;;;;;;;7.90;82.28;100242.34;1811062;76;22574;-61
2021/09/28 01:02:13;;;;;;;6.50;3.40;;;;;;;7.92;82.13;100234.06;1823183;76;21338;-61
2021/09/28 01:04:40;;;;;;;6.58;4.40;;;;;;;7.92;82.19;100236.66;1820420;76;21342;-60
2021/09/28 01:07:09;;;;;;;9.93;4.35;;;;;;;7.91;82.31;100235.81;1824444;77;20999;-61
2021/09/28 01:09:37;;;;;;;6.40;4.65;;;;;;;7.90;82.37;100229.34;1827033;77;20932;-61
2021/09/28 01:12:06;;;;;;;7.20;4.97;;;;;;;7.89;82.28;100231.55;1818998;76;21235;-61
2021/09/28 01:14:33;;;;;;;6.62;4.62;;;;;;;7.89;82.46;100228.95;1820527;76;21582;-60
2021/09/28 01:16:59;;;;;;;7.60;5.40;;;;;;;7.90;82.68;100228.04;1818904;76;21346;-61
2021/09/28 01:19:26;;;;;;;6.92;3.85;;;;;;;7.90;82.58;100234.13;1827162;76;21018;-61
2021/09/28 01:21:53;;;;;;;6.35;4.83;;;;;;;7.91;82.60;100221.97;1821593;77;21129;-61
2021/09/28 01:24:19;;;;;;;11.77;5.10;;;;;;;7.93;82.86;100225.38;1822888;76;21471;-61
2021/09/28 01:26:46;;;;;;;6.62;5.65;;;;;;;7.94;82.92;100219.27;1823666;76;21653;-61
2021/09/28 01:29:13;;;;;;;5.87;3.52;;;;;;;7.95;83.13;100219.67;1819857;76;21406;-60
2021/09/28 01:31:40;;;;;;;5.65;3.33;;;;;;;7.98;83.08;100218.28;1835837;76;21046;-61
2021/09/28 01:34:08;;;;;;;5.72;4.30;;;;;;;7.99;83.20;100214.80;1821286;76;21534;-61
2021/09/28 01:36:36;;;;;;;6.95;3.50;;;;;;;8.03;83.18;100222.45;1815732;77;21965;-61
2021/09/28 01:39:03;;;;;;;;;;;;;;;8.07;83.50;100220.64;1795549;76;21276;-61
2021/09/28 01:41:30;;;;;;;;;;;;;;;8.08;83.33;100214.53;1815983;77;20230;-61
2021/09/28 01:44:16;;;;;;;7.90;4.00;;;;;;;8.07;83.28;100212.83;1830992;76;20929;-61
2021/09/28 01:46:46;;;;;;;4.97;3.58;;;;;;;8.07;83.08;100210.23;1817333;77;21818;-61
2021/09/28 01:49:16;;;;;;;3.83;3.30;;;;;;;8.07;83.36;100205.03;1825047;76;21068;-61
2021/09/28 01:51:44;;;;;;;3.45;2.70;;;;;;;8.10;83.29;100199.73;1815044;76;21404;-61
2021/09/28 01:54:12;;;;;;;7.08;3.75;;;;;;;8.14;83.42;100202.64;1818997;77;21088;-61
2021/09/28 01:56:39;;;;;;;6.53;4.08;;;;;;;8.17;83.51;100199.94;1825546;76;21485;-61
2021/09/28 01:59:06;;;;;;;5.00;3.45;;;;;;;8.20;83.58;100188.14;1823205;77;22242;-61
2021/09/28 02:01:34;;;;;;;7.95;2.83;;;;;;;8.22;83.60;100195.45;1823281;76;21550;-61
2021/09/28 02:04:00;;;;;;;5.08;3.42;;;;;;;8.24;83.60;100190.22;1810147;77;23269;-61
2021/09/28 02:06:29;;;;;;;3.55;2.90;;;;;;;8.25;83.46;100197.97;1807500;77;21005;-61
2021/09/28 02:08:56;;;;;;;7.83;3.83;;;;;;;8.25;83.55;100199.27;1828068;76;21449;-61
2021/09/28 02:11:23;;;;;;;4.58;2.77;;;;;;;8.25;83.50;100194.06;1815858;76;21131;-61
2021/09/28 02:13:50;;;;;;;3.93;3.37;;;;;;;8.26;83.53;100198.39;1810974;77;21415;-62
2021/09/28 02:16:18;;;;;;;4.28;3.52;;;;;;;8.25;83.66;100191.46;1807173;77;21108;-61
2021/09/28 02:18:44;;;;;;;;;;;;;;;8.24;83.45;100194.97;1817454;77;21360;-61
2021/09/28 02:21:11;;;;;;;5.00;3.40;;;;;;;8.23;83.70;100193.28;1822323;77;20740;-61
2021/09/28 02:23:38;;;;;;;4.22;3.25;;;;;;;8.24;83.64;100195.43;1804543;76;21494;-60
2021/09/28 02:26:05;;;;;;;3.40;2.63;;;;;;;8.23;83.64;100194.58;1825488;77;21508;-61
2021/09/28 02:28:32;;;;;;;3.08;2.58;;;;;;;8.24;83.57;100194.13;1824497;77;20880;-61
2021/09/28 02:30:59;;;;;;;4.37;3.37;;;;;;;8.22;83.48;100195.91;1785665;78;21047;-61
2021/09/28 02:33:26;;;;;;;4.17;3.52;;;;;;;8.20;83.51;100195.95;1823182;77;21097;-61
2021/09/28 02:35:52;;;;;;;3.80;3.40;;;;;;;8.21;83.65;100192.47;1806005;77;21433;-61
2021/09/28 02:38:19;;;;;;;4.30;3.40;;;;;;;8.21;83.71;100187.72;1811358;77;22200;-61
2021/09/28 02:40:46;;;;;;;4.30;3.58;;;;;;;8.21;83.69;100185.12;1813054;76;21179;-61
2021/09/28 02:43:14;;;;;;;5.05;3.37;;;;;;;8.20;83.80;100190.74;1753520;78;21473;-61
2021/09/28 02:45:41;;;;;;;3.27;2.55;;;;;;;8.21;83.74;100181.22;1752326;78;21151;-61
2021/09/28 02:48:08;;;;;;;6.55;3.72;;;;;;;8.21;83.73;100182.06;1750014;79;26636;-61
2021/09/28 02:50:34;;;;;;;4.50;3.27;;;;;;;8.21;83.85;100184.66;1743695;80;22239;-61
2021/09/28 02:53:02;;;;;;;4.00;3.13;;;;;;;8.21;83.68;100185.96;1742950;80;21439;-61
2021/09/28 02:55:28;;;;;;;;;;;;;;;8.22;83.80;100181.16;1736656;80;21120;-61
2021/09/28 02:57:55;;;;;;;6.40;4.00;;;;;;;8.22;83.88;100186.81;1755201;80;20163;-61
2021/09/28 03:00:22;;;;;;;3.00;2.70;;;;;;;8.20;83.81;100182.94;1684488;80;21538;-61
2021/09/28 03:02:49;;;;;;;4.37;3.30;;;;;;;8.19;83.74;100182.55;1756425;79;21122;-61
2021/09/28 03:05:16;;;;;;;3.75;2.70;;;;;;;8.18;83.80;100184.76;1772719;78;21095;-61
2021/09/28 03:07:42;;;;;;;5.30;3.80;;;;;;;8.16;83.78;100176.14;1769555;78;21059;-61
2021/09/28 03:10:10;;;;;;;6.08;3.65;;;;;;;8.15;83.75;100184.86;1809552;77;21073;-61
2021/09/28 03:12:38;;;;;;;4.47;2.90;;;;;;;8.13;83.71;100182.73;1826841;77;21413;-61
2021/09/28 03:15:11;;;;;;;8.95;3.60;;;;;;;8.11;83.77;100180.63;1812744;76;21825;-61
2021/09/28 03:17:35;;;;;;;8.00;3.67;;;;;;;8.11;83.77;100180.63;1809763;77;21129;-61
2021/09/28 03:20:03;;;;;;;6.87;3.50;;;;;;;8.11;83.79;100182.38;1819549;76;21421;-61
2021/09/28 03:22:29;;;;;;;10.82;3.08;;;;;;;8.11;83.75;100183.22;1822785;77;22386;-61
2021/09/28 03:24:56;;;;;;;4.03;3.33;;;;;;;8.08;83.73;100185.46;1823077;77;21010;-60
2021/09/28 03:27:23;;;;;;;4.67;2.77;;;;;;;8.07;83.77;100179.02;1822819;77;21723;-61
2021/09/28 03:29:49;;;;;;;5.20;3.05;;;;;;;8.06;83.97;100177.30;1836583;76;20991;-61
2021/09/28 03:32:16;;;;;;;3.97;3.17;;;;;;;8.05;83.87;100186.02;1834202;76;20965;-61
2021/09/28 03:34:43;;;;;;;4.67;3.60;;;;;;;8.03;83.82;100183.89;1820016;76;21426;-61
2021/09/28 03:37:16;;;;;;;4.08;2.80;;;;;;;8.03;83.89;100182.59;1822461;76;21639;-61
2021/09/28 03:39:42;;;;;;;6.17;3.47;;;;;;;8.01;83.89;100181.78;1806671;77;21354;-61
2021/09/28 03:42:09;;;;;;;4.17;2.80;;;;;;;8.00;83.90;100182.69;1794559;77;21125;-61
2021/09/28 03:44:36;;;;;;;8.57;4.27;;;;;;;7.98;84.00;100180.57;1831079;76;20981;-61
2021/09/28 03:47:03;;;;;;;7.00;3.90;;;;;;;7.97;83.99;100180.18;1823204;77;22421;-61
2021/09/28 03:49:30;;;;;;;6.10;4.22;;;;;;;7.96;84.04;100183.69;1823770;76;21053;-61
2021/09/28 03:51:56;;;;;;;9.03;4.35;;;;;;;7.95;84.15;100187.16;1818020;76;22179;-61
2021/09/28 03:54:23;;;;;;;4.95;3.17;;;;;;;7.96;84.13;100188.89;1829016;77;20977;-61
2021/09/28 03:56:49;;;;;;;5.12;3.00;;;;;;;7.96;84.03;100188.89;1839994;77;21025;-61
2021/09/28 03:59:16;;;;;;;4.23;3.40;;;;;;;7.95;84.06;100189.77;1819489;77;21361;-60
2021/09/28 04:01:43;;;;;;;4.42;3.40;;;;;;;7.95;84.06;100198.41;1820419;77;22287;-60
2021/09/28 04:04:10;;;;;;;4.03;3.62;;;;;;;7.93;84.05;100191.58;1806820;76;21832;-61
2021/09/28 04:06:37;;;;;;;8.23;4.25;;;;;;;7.93;84.10;100195.48;1812187;76;21434;-61
2021/09/28 04:09:03;;;;;;;4.50;3.03;;;;;;;7.91;84.15;100193.36;1825584;77;21034;-61
2021/09/28 04:11:30;;;;;;;9.20;3.72;;;;;;;7.91;84.20;100198.56;1819699;77;21069;-61
2021/09/28 04:13:57;;;;;;;7.93;3.00;;;;;;;7.90;84.26;100202.92;1814839;77;21682;-61
2021/09/28 04:16:25;;;;;;;6.20;3.80;;;;;;;7.91;84.22;100206.37;1820204;77;22599;-61
2021/09/28 04:18:51;;;;;;;10.53;3.55;;;;;;;7.89;84.17;100213.34;1817502;77;21099;-61
2021/09/28 04:21:18;;;;;;;7.30;3.33;;;;;;;7.89;84.22;100217.25;1800668;77;21753;-61
2021/09/28 04:23:45;;;;;;;12.93;5.62;;;;;;;7.85;84.26;100219.94;1805546;77;21117;-61
2021/09/28 04:26:12;;;;;;;6.55;4.62;;;;;;;7.85;84.24;100218.64;1804119;77;21126;-61
2021/09/28 04:28:39;;;;;;;6.25;4.10;;;;;;;7.85;84.27;100216.04;1812153;76;22513;-61
2021/09/28 04:31:07;;;;;;;5.00;3.13;;;;;;;7.85;84.36;100218.64;1807348;78;21655;-61
2021/09/28 04:33:34;;;;;;;8.88;3.87;;;;;;;7.87;84.36;100220.33;1812419;77;22334;-61
2021/09/28 04:36:01;;;;;;;7.50;3.10;;;;;;;7.88;84.35;100223.36;1815161;77;22310;-61
2021/09/28 04:38:27;;;;;;;7.58;4.67;;;;;;;7.90;84.37;100225.44;1818277;76;21101;-62
2021/09/28 04:40:54;;;;;;;11.27;5.20;;;;;;;7.92;84.35;100224.50;1829511;76;21304;-61
2021/09/28 04:43:52;;;;;;;15.98;7.17;;;;;;;7.99;84.36;100223.45;1839147;75;23305;-60
2021/09/28 04:46:19;;;;;;;16.67;9.27;;;;;;;7.96;84.28;100231.34;1798635;77;21346;-61
2021/09/28 04:48:46;;;;;;;15.65;8.33;;;;;;;8.01;84.29;100229.47;1801600;77;22265;-60
2021/09/28 04:51:12;;;;;;;12.90;8.83;;;;;;;8.03;84.26;100224.20;1770839;77;21119;-60
2021/09/28 04:53:39;;;;;;;15.10;8.40;;;;;;;8.06;84.32;100230.16;1785527;77;21357;-60
2021/09/28 04:56:06;;;;;;;7.13;5.27;;;;;;;8.09;84.34;100229.22;1799532;77;21417;-61
2021/09/28 04:58:32;;;;;;;5.77;4.80;;;;;;;8.15;84.38;100230.80;1798590;77;20934;-61
2021/09/28 05:00:59;;;;;;;9.65;4.78;;;;;;;8.31;84.51;100232.05;1802647;77;21424;-60
2021/09/28 05:03:26;;;;;;;5.28;4.00;;;;;;;8.52;84.50;100229.30;1793326;77;21402;-60
2021/09/28 05:05:52;;;;;;;8.43;3.90;;;;;;;8.64;84.23;100227.61;1814781;77;20961;-61
2021/09/28 05:08:19;;;;;;;6.23;3.90;;;;;;;8.70;84.13;100229.16;1793929;77;21049;-60
2021/09/28 05:10:47;;;;;;;8.43;4.00;;;;;;;8.78;84.15;100233.69;1795032;77;21812;-61
2021/09/28 05:13:15;;;;;;;6.85;4.17;;;;;;;8.87;84.13;100233.38;1790222;77;22482;-60
2021/09/28 05:15:41;;;;;;;5.60;3.90;;;;;;;8.93;84.04;100233.63;1793435;77;21461;-60
2021/09/28 05:18:08;;;;;;;10.53;3.70;;;;;;;9.02;84.13;100235.96;1808945;77;22308;-60
2021/09/28 05:20:35;;;;;;;4.97;3.40;;;;;;;9.30;84.47;100229.80;1793424;77;21548;-60
2021/09/28 05:23:07;;;;;;;8.93;4.12;;;;;;;9.67;84.47;100228.56;1798243;77;21448;-60
2021/09/28 05:25:33;;;;;;;8.55;3.62;;;;;;;10.06;84.10;100231.48;1803093;77;22473;-60
2021/09/28 05:28:00;;;;;;;4.60;3.33;;;;;;;10.44;83.77;100239.64;1812274;77;20964;-62
2021/09/28 05:30:27;;;;;;;3.13;2.70;;;;;;;10.77;83.54;100234.02;1799692;77;21172;-62
2021/09/28 05:32:53;;;;;;;4.78;3.20;;;;;;;11.09;83.29;100237.92;1796898;77;21430;-61
2021/09/28 05:35:20;;;;;;;3.57;2.30;;;;;;;11.35;83.00;100236.41;1804456;77;21456;-62
2021/09/28 05:37:46;;;;;;;8.58;3.62;;;;;;;11.52;82.53;100225.69;1802624;77;21817;-62
2021/09/28 05:40:13;;;;;;;5.87;3.37;;;;;;;11.57;82.09;100231.57;1806937;77;21053;-61
2021/09/28 05:42:40;;;;;;;7.87;3.47;;;;;;;11.42;81.79;100235.20;1802590;77;21479;-62
2021/09/28 05:45:08;;;;;;;4.42;3.20;;;;;;;11.22;81.97;100233.91;1803272;77;21439;-61
2021/09/28 05:47:35;;;;;;;5.85;2.92;;;;;;;11.11;81.87;100238.72;1802722;77;21096;-62
2021/09/28 05:50:02;;;;;;;6.83;3.37;;;;;;;11.06;82.30;100238.05;1803227;77;22329;-62
2021/09/28 05:52:29;;;;;;;6.15;3.05;;;;;;;11.12;82.42;100234.75;1805151;77;21094;-62
2021/09/28 05:54:55;;;;;;;5.72;2.87;;;;;;;11.25;82.57;100235.54;1809226;77;21437;-61
2021/09/28 05:57:24;;;;;;;5.00;3.07;;;;;;;11.44;82.38;100233.84;1804569;77;21676;-62
2021/09/28 05:59:51;;;;;;;5.58;3.02;;;;;;;11.49;82.07;100236.28;1801308;77;21062;-62
2021/09/28 06:02:18;;;;;;;10.35;3.27;;;;;;;11.39;81.68;100243.19;1803399;77;21529;-62
2021/09/28 06:07:14;;;;;;;6.10;3.10;;;;;;;11.36;81.76;100244.63;1778284;78;22267;-62
2021/09/28 06:09:42;;;;;;;5.83;3.70;;;;;;;11.32;81.99;100229.16;1760692;79;22304;-62
2021/09/28 06:12:11;;;;;;;7.47;3.20;;;;;;;11.32;81.99;100229.16;1760902;78;21265;-62
2021/09/28 06:14:38;;;;;;;8.15;3.33;;;;;;;11.74;82.19;100252.61;1760722;79;21111;-64
2021/09/28 06:17:05;;;;;;;7.37;3.10;;;;;;;12.02;81.64;100247.50;1759949;78;22411;-65
2021/09/28 06:19:34;;;;;;;16.23;3.90;;;;;;;12.17;81.81;100252.03;1758395;80;20967;-62
2021/09/28 06:22:03;;;;;;;7.67;3.05;;;;;;;12.36;81.43;100250.73;1761349;78;21665;-62
2021/09/28 06:24:32;;;;;;;7.67;3.12;;;;;;;12.43;81.08;100252.60;1765191;80;22295;-62
2021/09/28 06:27:00;;;;;;;5.95;3.47;;;;;;;12.29;80.74;100258.04;1761931;78;21014;-63
2021/09/28 06:29:27;;;;;;;5.65;3.02;;;;;;;12.11;80.76;100258.02;1760110;78;21503;-62
2021/09/28 06:31:54;;;;;;;;;;;;;;;11.88;80.67;100254.66;1765183;79;21082;-62
2021/09/28 06:34:20;;;;;;;6.70;3.27;;;;;;;11.70;80.86;100261.48;1767407;78;20658;-62
2021/09/28 06:36:47;;;;;;;4.40;3.08;;;;;;;11.58;81.04;100258.11;1764541;80;22302;-62
2021/09/28 06:39:14;;;;;;;8.10;3.60;;;;;;;11.56;81.33;100258.62;1761697;78;21293;-62
2021/09/28 06:41:40;;;;;;;4.90;3.47;;;;;;;11.59;81.33;100262.41;1765384;79;21378;-61
2021/09/28 06:44:07;;;;;;;5.33;3.50;;;;;;;11.60;81.17;100265.44;1761999;79;21414;-61
2021/09/28 06:46:34;;;;;;;23.38;4.40;;;;;;;11.66;81.23;100265.17;1764278;78;21521;-60
2021/09/28 06:49:01;;;;;;;6.00;3.47;;;;;;;11.74;81.22;100268.31;1708345;81;22600;-61
2021/09/28 06:51:28;;;;;;;7.78;3.62;;;;;;;12.01;81.54;100266.72;1704806;82;21123;-61
2021/09/28 06:53:55;;;;;;;3.98;3.45;;;;;;;12.33;81.47;100263.13;1705520;82;21168;-60
2021/09/28 06:56:21;;;;;;;14.35;5.20;;;;;;;12.54;80.85;100264.73;1706759;81;22451;-61
2021/09/28 06:58:51;;;;;;;4.95;3.10;;;;;;;12.68;80.91;100264.94;1703489;81;21496;-61
2021/09/28 07:01:17;;;;;;;10.18;4.22;;;;;;;12.86;80.81;100272.87;1700910;82;21554;-60
2021/09/28 07:03:44;;;;;;;12.50;3.73;;;;;;;13.04;80.33;100273.27;1702304;82;21060;-60
2021/09/28 07:06:10;;;;;;;9.37;3.00;;;;;;;13.14;80.36;100273.22;1704621;82;22385;-61
2021/09/28 07:08:37;;;;;;;5.62;3.42;;;;;;;13.28;80.24;100273.04;1702912;81;21150;-61
2021/09/28 07:11:04;;;;;;;7.77;3.30;;;;;;;13.35;80.11;100270.48;1729943;81;21584;-61
2021/09/28 07:13:31;;;;;;;5.45;3.17;;;;;;;13.27;79.51;100273.95;1703105;83;21512;-61
2021/09/28 07:15:57;;;;;;;11.70;3.62;;;;;;;13.27;79.51;100273.95;1702314;82;21166;-61
2021/09/28 07:18:24;;;;;;;9.60;3.20;;;;;;;13.27;79.78;100268.70;1711439;81;21694;-63
2021/09/28 07:20:51;;;;;;;4.80;3.77;;;;;;;13.27;79.53;100271.33;1708916;81;22068;-63
2021/09/28 07:23:17;;;;;;;5.53;3.20;;;;;;;13.35;79.76;100274.41;1708405;81;21324;-62
2021/09/28 07:25:44;;;;;;;4.30;3.15;;;;;;;13.47;79.88;100280.38;1700106;81;21570;-63
2021/09/28 07:28:10;;;;;;;10.90;3.20;;;;;;;13.58;79.70;100274.13;1732117;80;21077;-62
2021/09/28 07:30:37;;;;;;;6.23;4.33;;;;;;;13.57;79.39;100272.41;1728140;81;21106;-63
2021/09/28 07:33:04;;;;;;;6.13;3.90;;;;;;;13.54;79.03;100272.56;1727311;80;21660;-63
2021/09/28 07:35:31;;;;;;;7.55;3.95;;;;;;;13.34;78.29;100263.55;1701702;82;21196;-63
2021/09/28 07:37:57;;;;;;;9.73;3.70;;;;;;;13.09;78.48;100269.97;1695262;83;21130;-63
2021/09/28 07:40:24;;;;;;;7.57;3.50;;;;;;;12.94;78.57;100270.73;1697902;83;21437;-62
2021/09/28 07:42:51;;;;;;;10.50;4.10;;;;;;;12.80;78.74;100263.52;1727262;81;21362;-62
2021/09/28 07:45:17;;;;;;;6.20;3.17;;;;;;;12.75;78.82;100266.36;1718380;81;21709;-62
2021/09/28 07:47:46;;;;;;;5.08;3.20;;;;;;;12.82;78.95;100266.05;1688691;83;21103;-62
2021/09/28 07:50:13;;;;;;;3.75;3.30;;;;;;;12.87;78.81;100261.45;1692850;83;21533;-62
2021/09/28 07:52:40;;;;;;;7.60;3.45;;;;;;;12.95;78.91;100262.77;1701490;82;22065;-62
2021/09/28 07:55:07;;;;;;;5.17;2.98;;;;;;;13.01;78.82;100266.02;1703613;82;21098;-63
2021/09/28 07:57:34;;;;;;;5.53;3.15;;;;;;;13.04;78.71;100269.34;1728381;81;21914;-62
2021/09/28 08:00:09;;;;;;;6.40;3.83;;;;;;;13.08;78.58;100276.15;1702778;81;21501;-63
2021/09/28 08:02:46;;;;;;;11.33;3.52;;;;;;;13.17;78.86;100277.00;1675236;83;22310;-62
2021/09/28 08:05:21;;;;;;;6.60;3.73;;;;;;;13.34;78.65;100274.04;1698525;82;21076;-62
2021/09/28 08:07:55;;;;;;;7.15;3.52;;;;;;;13.41;78.57;100272.79;1676722;83;21160;-62
2021/09/28 08:10:29;;;;;;;6.30;3.58;;;;;;;13.39;78.15;100268.11;1702680;82;21672;-62
2021/09/28 08:12:59;;;;;;;11.53;3.72;;;;;;;13.33;77.82;100280.19;1709333;82;21347;-62
2021/09/28 08:15:26;;;;;;;11.57;3.92;;;;;;;13.25;77.78;100274.44;1707089;81;22182;-62
2021/09/28 08:17:53;;;;;;;22.90;4.92;;;;;;;13.13;77.41;100278.05;1708828;82;20956;-62
2021/09/28 08:20:22;;;;;;;7.03;4.10;;;;;;;13.04;77.57;100277.20;1706084;82;21330;-62
2021/09/28 08:22:48;;;;;;;9.03;4.67;;;;;;;13.03;77.77;100275.52;1708801;81;21393;-61
2021/09/28 08:25:17;;;;;;;7.15;4.28;;;;;;;13.15;78.08;100286.70;1677411;81;21085;-62
2021/09/28 08:30:28;;;;;;;5.33;3.30;;;;;;;13.38;77.97;100286.06;1704068;82;21896;-62
2021/09/28 08:32:55;;;;;;;25.52;4.58;;;;;;;13.62;78.11;100282.68;1679770;83;21333;-62
2021/09/28 08:35:22;;;;;;;6.92;3.70;;;;;;;13.83;78.25;100295.99;1705288;83;22101;-63
2021/09/28 08:37:50;;;;;;;7.37;3.42;;;;;;;14.08;78.21;100287.69;1704405;81;21402;-62
2021/09/28 08:40:19;;;;;;;6.20;3.52;;;;;;;14.27;77.78;100291.98;1709900;82;22560;-62
2021/09/28 08:42:45;;;;;;;9.48;3.47;;;;;;;14.43;77.91;100295.48;1707705;81;20974;-63
2021/09/28 08:45:12;;;;;;;16.80;4.42;;;;;;;14.58;76.83;100290.35;1705377;81;22127;-63
2021/09/28 08:47:45;;;;;;;6.67;4.25;;;;;;;14.45;77.04;100296.25;1694510;83;21049;-62
2021/09/28 08:50:18;;;;;;;6.55;3.80;;;;;;;14.43;77.01;100290.23;1714044;81;20967;-62
2021/09/28 08:52:48;;;;;;;8.18;3.75;;;;;;;14.42;76.58;100292.92;1710188;81;21798;-63
2021/09/28 08:55:16;;;;;;;7.00;3.50;;;;;;;14.34;76.45;100292.05;1710138;81;20899;-63
2021/09/28 08:57:43;;;;;;;5.90;3.52;;;;;;;14.40;76.88;100287.77;1709282;82;20938;-63
2021/09/28 09:00:23;;;;;;;13.08;4.40;;;;;;;14.51;76.55;100290.66;1709457;81;20911;-65
2021/09/28 09:02:50;;;;;;;6.47;3.20;;;;;;;14.51;76.55;100288.03;1710816;82;21618;-62
2021/09/28 09:05:17;;;;;;;5.60;3.37;;;;;;;14.50;75.72;100290.26;1710073;82;21544;-63
2021/09/28 09:08:02;;;;;;;8.28;3.37;;;;;;;14.37;75.69;100287.94;1708973;81;21403;-63
2021/09/28 09:10:36;;;;;;;11.57;4.28;;;;;;;14.30;75.50;100285.24;1711492;81;20970;-61
2021/09/28 09:13:03;;;;;;;16.02;4.00;;;;;;;14.35;76.11;100287.16;1710137;81;20972;-63
2021/09/28 09:15:33;;;;;;;10.15;3.35;;;;;;;14.50;76.44;100283.69;1704221;81;21014;-63
2021/09/28 09:18:06;;;;;;;8.45;3.62;;;;;;;14.63;75.66;100280.44;1711674;82;21377;-63
2021/09/28 09:20:46;;;;;;;12.25;3.42;;;;;;;14.62;75.53;100281.35;1712105;81;21593;-63
2021/09/28 09:23:32;;;;;;;17.50;3.80;;;;;;;14.67;75.98;100281.95;1706738;82;20996;-64
2021/09/28 09:26:23;;;;;;;8.43;3.95;;;;;;;14.66;74.89;100285.52;1703554;81;21377;-63
2021/09/28 09:29:04;;;;;;;23.12;3.62;;;;;;;14.56;75.50;100293.05;1706278;82;21416;-62
2021/09/28 09:31:45;;;;;;;5.17;3.27;;;;;;;14.71;75.78;100288.75;1709647;81;21403;-70
2021/09/28 09:34:22;;;;;;;6.92;3.27;;;;;;;14.72;75.35;100289.97;1707779;81;20941;-72
2021/09/28 09:37:05;;;;;;;8.33;2.75;;;;;;;14.76;75.04;100290.19;1710630;82;20987;-74
2021/09/28 09:39:53;;;;;;;7.85;3.50;;;;;;;14.80;74.99;100293.48;1705931;82;21574;-74
2021/09/28 09:42:20;;;;;;;13.32;3.70;;;;;;;14.79;74.75;100289.17;1710980;82;22058;-74
2021/09/28 09:44:47;;;;;;;11.40;3.98;;;;;;;14.81;74.76;100295.17;1705800;81;21435;-74
2021/09/28 09:47:29;;;;;;;11.48;3.70;;;;;;;14.81;74.80;100297.80;1706000;82;21391;-74
2021/09/28 09:50:17;;;;;;;7.60;3.15;;;;;;;14.77;74.51;100298.92;1678504;83;21375;-73
2021/09/28 09:53:05;;;;;;;7.47;3.45;;;;;;;14.72;74.20;100300.95;1706152;82;20931;-73
2021/09/28 09:55:34;;;;;;;8.60;3.92;;;;;;;14.68;74.70;100307.32;1710310;82;21296;-73
2021/09/28 09:58:03;;;;;;;9.45;3.55;;;;;;;14.75;74.72;100303.41;1707549;82;21071;-73
2021/09/28 10:00:30;;;;;;;9.63;3.40;;;;;;;14.77;74.65;100306.80;1707796;82;22030;-73
2021/09/28 10:03:00;;;;;;;10.60;2.87;;;;;;;14.85;74.62;100300.66;1702913;82;21661;-74
2021/09/28 10:05:26;;;;;;;6.97;3.17;;;;;;;14.92;74.64;100305.09;1708755;82;20963;-74
2021/09/28 10:07:54;;;;;;;7.72;3.00;;;;;;;14.94;74.28;100297.50;1702112;82;21671;-75
2021/09/28 10:10:21;;;;;;;12.30;3.62;;;;;;;14.93;73.99;100301.08;1693429;82;22412;-75
2021/09/28 10:12:48;;;;;;;6.50;2.87;;;;;;;14.89;73.80;100308.73;1695973;82;21391;-75
2021/09/28 10:15:17;;;;;;;4.65;3.10;;;;;;;14.80;73.76;100306.63;1697302;82;20994;-76
2021/09/28 10:17:49;;;;;;;6.03;2.90;;;;;;;14.85;74.07;100304.60;1694451;83;21615;-74
2021/09/28 10:20:29;;;;;;;5.30;2.95;;;;;;;14.95;73.97;100299.19;1695199;82;21991;-74
2021/09/28 10:23:24;;;;;;;6.42;2.80;;;;;;;15.04;73.78;100300.92;1692300;82;22213;-74
2021/09/28 10:26:00;;;;;;;5.35;2.85;;;;;;;15.05;73.55;100300.01;1694307;82;22159;-74
2021/09/28 10:28:30;;;;;;;5.62;3.15;;;;;;;15.15;73.47;100295.90;1693297;82;21621;-74
2021/09/28 10:30:57;;;;;;;3.40;2.87;;;;;;;15.09;73.30;100296.25;1672146;83;21001;-74
2021/09/28 10:33:26;;;;;;;;;;;;;;;15.12;73.34;100300.87;1692274;82;20971;-72
2021/09/28 10:36:13;;;;;;;6.45;3.33;;;;;;;15.18;73.57;100297.06;1693286;82;21046;-72
2021/09/28 10:38:45;;;;;;;;;;;;;;;15.22;73.43;100305.16;1691732;82;21447;-71
2021/09/28 10:41:37;;;;;;;6.65;2.60;;;;;;;15.30;73.50;100304.72;1689600;82;20144;-70
2021/09/28 10:44:34;;;;;;;7.35;3.20;;;;;;;15.35;73.44;100308.78;1695615;83;21396;-70
2021/09/28 10:46:59;;;;;;;3.00;2.62;;;;;;;15.29;73.07;100311.77;1689656;83;21356;-71
2021/09/28 10:49:27;;;;;;;;;;;;;;;15.21;73.09;100317.46;1696297;82;21048;-73
2021/09/28 10:52:21;;;;;;;6.00;2.95;;;;;;;15.13;72.97;100323.62;1693223;83;20159;-70
2021/09/28 10:55:12;;;;;;;5.15;3.15;;;;;;;15.13;73.11;100322.30;1688579;82;21007;-71
2021/09/28 10:58:01;;;;;;;8.20;3.15;;;;;;;15.18;73.05;100326.00;1699969;83;21391;-71
2021/09/28 11:00:33;;;;;;;4.12;2.70;;;;;;;15.35;73.42;100319.30;1690510;83;20998;-71
2021/09/28 11:03:00;;;;;;;7.60;2.92;;;;;;;15.55;72.79;100313.36;1689618;82;21559;-74
2021/09/28 11:05:40;;;;;;;9.05;3.52;;;;;;;15.63;73.20;100310.65;1702333;82;21472;-73
2021/09/28 11:08:16;;;;;;;3.83;2.50;;;;;;;15.80;73.18;100314.95;1705469;82;21475;-73
2021/09/28 11:10:40;;;;;;;6.60;2.87;;;;;;;15.87;71.75;100310.15;1702425;82;20953;-72
2021/09/28 11:13:12;;;;;;;3.65;2.40;;;;;;;15.87;72.30;100310.15;1708548;81;21903;-74
2021/09/28 11:15:39;;;;;;;6.42;2.72;;;;;;;16.04;72.49;100303.86;1705663;81;21961;-74
2021/09/28 11:18:14;;;;;;;6.72;3.12;;;;;;;16.10;72.39;100304.36;1707675;81;21363;-74
2021/09/28 11:20:43;;;;;;;6.05;2.35;;;;;;;16.14;71.94;100306.80;1659048;81;20999;-73
2021/09/28 11:23:12;;;;;;;5.53;2.42;;;;;;;16.13;71.73;100308.56;1706314;82;21615;-74
2021/09/28 11:25:52;;;;;;;9.48;3.33;;;;;;;16.03;71.24;100310.09;1711534;82;20967;-74
2021/09/28 11:28:24;;;;;;;4.97;2.60;;;;;;;16.00;71.62;100310.27;1711349;81;21551;-74
2021/09/28 11:31:04;;;;;;;3.85;2.90;;;;;;;16.00;71.68;100313.75;1707711;82;22092;-74
2021/09/28 11:33:40;;;;;;;11.50;3.12;;;;;;;16.02;71.29;100313.64;1708775;81;20935;-74
2021/09/28 11:36:13;;;;;;;5.28;2.98;;;;;;;16.01;71.41;100302.27;1709215;81;21399;-74
2021/09/28 11:38:45;;;;;;;11.22;3.17;;;;;;;15.98;71.44;100301.61;1705241;82;21327;-74
2021/09/28 11:41:19;;;;;;;8.18;2.87;;;;;;;15.83;70.55;100313.45;1710161;82;21088;-74
2021/09/28 11:43:54;;;;;;;7.65;2.77;;;;;;;15.66;71.02;100310.47;1709267;81;20982;-74